createdAt,value
2018-07-09T00:01:03.220Z,16.60
2018-07-09T00:03:31.743Z,16.70
2018-07-09T00:05:59.817Z,16.80
2018-07-09T00:08:28.349Z,16.80
2018-07-09T00:11:06.306Z,16.90
2018-07-09T00:13:35.526Z,16.90
2018-07-09T00:21:00.491Z,16.60
2018-07-09T00:23:28.938Z,16.60
2018-07-09T00:25:57.552Z,16.40
2018-07-09T00:28:25.919Z,16.50
2018-07-09T00:30:53.980Z,16.40
2018-07-09T00:33:22.762Z,16.20
2018-07-09T00:35:51.546Z,16.30
2018-07-09T00:40:48.475Z,16.20
2018-07-09T00:43:16.671Z,16.20
2018-07-09T00:45:44.976Z,16.20
2018-07-09T00:48:13.052Z,16.10
2018-07-09T00:50:41.220Z,16.20
2018-07-09T00:53:09.374Z,16.20
2018-07-09T00:55:38.108Z,16.00
2018-07-09T01:00:34.534Z,16.10
2018-07-09T01:03:03.119Z,15.90
2018-07-09T01:05:32.693Z,15.80
2018-07-09T01:10:30.020Z,15.80
2018-07-09T01:12:58.331Z,15.80
2018-07-09T01:15:28.350Z,15.60
2018-07-09T01:17:56.734Z,15.70
2018-07-09T01:20:25.480Z,15.60
2018-07-09T01:22:54.899Z,15.60
2018-07-09T01:25:22.978Z,15.40
2018-07-09T01:27:52.566Z,15.40
2018-07-09T01:30:21.910Z,15.40
2018-07-09T01:32:50.770Z,15.30
2018-07-09T01:35:19.336Z,15.40
2018-07-09T01:37:48.419Z,15.30
2018-07-09T01:40:17.414Z,15.20
2018-07-09T01:42:46.077Z,15.20
2018-07-09T01:45:14.045Z,15.20
2018-07-09T01:47:42.154Z,15.20
2018-07-09T01:50:10.276Z,15.20
2018-07-09T01:52:38.328Z,15.30
2018-07-09T01:55:06.626Z,15.20
2018-07-09T01:57:34.650Z,15.10
2018-07-09T02:00:02.783Z,15.10
2018-07-09T02:02:30.750Z,15.00
2018-07-09T02:04:59.015Z,15.00
2018-07-09T02:07:27.096Z,14.90
2018-07-09T02:09:55.793Z,14.80
2018-07-09T02:12:23.768Z,14.70
2018-07-09T02:14:52.041Z,14.80
2018-07-09T02:17:20.130Z,14.90
2018-07-09T02:19:48.142Z,14.80
2018-07-09T02:22:16.098Z,14.80
2018-07-09T02:24:44.324Z,14.80
2018-07-09T02:27:12.366Z,14.80
2018-07-09T02:29:40.341Z,14.70
2018-07-09T02:32:08.347Z,14.80
2018-07-09T02:34:36.373Z,14.90
2018-07-09T02:37:04.455Z,14.80
2018-07-09T02:39:35.286Z,14.70
2018-07-09T02:42:03.263Z,14.80
2018-07-09T02:44:31.329Z,14.70
2018-07-09T02:46:59.369Z,14.70
2018-07-09T02:49:27.564Z,14.70
2018-07-09T02:51:56.277Z,14.60
2018-07-09T02:54:24.259Z,14.60
2018-07-09T02:56:52.233Z,14.60
2018-07-09T02:59:20.491Z,14.60
2018-07-09T03:01:48.573Z,14.50
2018-07-09T03:04:17.223Z,14.50
2018-07-09T03:06:47.305Z,14.40
2018-07-09T03:12:05.532Z,14.30
2018-07-09T03:14:33.956Z,14.40
2018-07-09T03:25:19.132Z,14.30
2018-07-09T03:27:48.536Z,14.30
2018-07-09T03:30:38.617Z,14.20
2018-07-09T03:33:07.284Z,14.30
2018-07-09T03:35:36.601Z,14.30
2018-07-09T03:38:05.631Z,14.30
2018-07-09T03:40:34.520Z,14.50
2018-07-09T03:43:15.224Z,14.50
2018-07-09T03:45:43.253Z,14.50
2018-07-09T03:48:11.489Z,14.20
2018-07-09T03:54:01.235Z,13.80
2018-07-09T04:01:39.404Z,14.00
2018-07-09T04:04:08.507Z,14.00
2018-07-09T04:06:38.619Z,14.00
2018-07-09T04:09:07.251Z,14.20
2018-07-09T04:11:35.989Z,14.20
2018-07-09T04:14:20.190Z,14.20
2018-07-09T04:16:48.239Z,14.30
2018-07-09T04:19:17.628Z,14.30
2018-07-09T04:24:14.230Z,14.20
2018-07-09T04:26:42.457Z,14.30
2018-07-09T04:31:38.438Z,14.20
2018-07-09T04:34:07.459Z,14.30
2018-07-09T04:36:36.435Z,14.40
2018-07-09T04:39:06.025Z,14.40
2018-07-09T04:41:35.000Z,14.50
2018-07-09T04:44:04.129Z,14.50
2018-07-09T04:46:32.705Z,14.60
2018-07-09T04:49:02.098Z,14.70
2018-07-09T04:51:30.074Z,14.70
2018-07-09T04:53:58.622Z,14.70
2018-07-09T04:56:27.180Z,14.80
2018-07-09T04:58:56.913Z,14.60
2018-07-09T05:01:24.985Z,14.70
2018-07-09T05:03:53.879Z,14.80
2018-07-09T05:06:22.105Z,14.80
2018-07-09T05:08:52.098Z,14.90
2018-07-09T05:11:20.536Z,14.80
2018-07-09T05:13:48.510Z,14.90
2018-07-09T05:16:16.593Z,14.80
2018-07-09T05:18:44.799Z,14.70
2018-07-09T05:21:12.801Z,14.90
2018-07-09T05:26:08.914Z,15.20
2018-07-09T05:28:37.488Z,15.10
2018-07-09T05:31:05.740Z,15.40
2018-07-09T05:33:33.954Z,15.50
2018-07-09T05:36:02.053Z,15.60
2018-07-09T05:38:30.233Z,15.60
2018-07-09T05:41:00.405Z,15.70
2018-07-09T05:43:28.601Z,15.90
2018-07-09T05:46:01.558Z,15.90
2018-07-09T05:48:44.783Z,16.00
2018-07-09T05:51:12.901Z,15.90
2018-07-09T05:53:41.357Z,16.10
2018-07-09T05:56:09.385Z,16.10
2018-07-09T05:58:37.552Z,16.20
2018-07-09T06:01:05.590Z,16.30
2018-07-09T06:03:33.802Z,16.40
2018-07-09T06:06:02.149Z,16.60
2018-07-09T06:10:59.588Z,16.80
2018-07-09T06:13:28.333Z,17.00
2018-07-09T06:15:56.322Z,17.10
2018-07-09T06:18:24.438Z,17.20
2018-07-09T06:20:52.514Z,17.10
2018-07-09T06:23:21.775Z,17.30
2018-07-09T06:25:50.298Z,17.30
2018-07-09T06:30:46.500Z,17.10
2018-07-09T06:33:14.597Z,17.20
2018-07-09T06:35:42.833Z,17.10
2018-07-09T06:38:11.108Z,17.30
2018-07-09T06:40:39.579Z,17.30
2018-07-09T06:43:08.021Z,17.30
2018-07-09T06:48:04.807Z,18.00
2018-07-09T06:50:34.513Z,18.30
2018-07-09T06:53:02.609Z,19.00
2018-07-09T06:55:30.663Z,20.90
2018-07-09T06:57:59.259Z,22.40
2018-07-09T07:00:27.587Z,22.70
2018-07-09T07:02:56.725Z,22.10
2018-07-09T07:05:48.815Z,22.50
2018-07-09T07:08:28.550Z,23.90
2018-07-09T07:11:06.843Z,24.10
2018-07-09T07:13:35.658Z,24.00
2018-07-09T07:16:03.891Z,24.50
2018-07-09T07:18:32.177Z,25.30
2018-07-09T07:21:00.594Z,26.10
2018-07-09T07:23:30.004Z,24.70
2018-07-09T07:28:26.061Z,24.50
2018-07-09T07:30:54.537Z,25.30
2018-07-09T07:33:23.471Z,26.40
2018-07-09T07:35:51.809Z,26.30
2018-07-09T07:38:20.184Z,26.70
2018-07-09T07:40:48.407Z,26.40
2018-07-09T07:43:16.531Z,27.10
2018-07-09T07:45:44.955Z,27.90
2018-07-09T07:48:12.984Z,27.50
2018-07-09T07:50:46.112Z,27.50
2018-07-09T07:53:14.464Z,27.60
2018-07-09T07:55:43.575Z,26.00
2018-07-09T07:58:11.590Z,26.50
2018-07-09T08:00:39.961Z,26.60
2018-07-09T08:03:08.438Z,27.50
2018-07-09T08:05:37.130Z,25.50
2018-07-09T08:08:05.408Z,26.40
2018-07-09T08:10:33.680Z,26.90
2018-07-09T08:13:27.175Z,27.00
2018-07-09T08:15:32.661Z,26.80
2018-07-09T08:18:02.722Z,26.40
2018-07-09T08:20:30.880Z,26.50
2018-07-09T08:22:59.289Z,27.10
2018-07-09T08:25:27.487Z,27.10
2018-07-09T08:27:55.563Z,27.90
2018-07-09T08:30:23.628Z,28.60
2018-07-09T08:32:52.710Z,28.60
2018-07-09T08:35:20.746Z,27.50
2018-07-09T08:37:48.822Z,27.30
2018-07-09T08:40:17.277Z,26.60
2018-07-09T08:42:46.389Z,27.00
2018-07-09T08:45:14.409Z,26.90
2018-07-09T08:47:42.671Z,26.20
2018-07-09T08:50:10.720Z,26.40
2018-07-09T08:52:39.204Z,27.30
2018-07-09T08:55:09.326Z,27.40
2018-07-09T08:57:37.469Z,28.40
2018-07-09T09:00:05.634Z,26.90
2018-07-09T09:02:33.889Z,26.70
2018-07-09T09:05:01.953Z,28.40
2018-07-09T09:07:30.197Z,27.50
2018-07-09T09:09:58.468Z,26.80
2018-07-09T09:12:27.356Z,27.80
2018-07-09T09:14:58.422Z,28.30
2018-07-09T09:17:26.794Z,28.80
2018-07-09T09:19:58.110Z,27.30
2018-07-09T09:22:27.005Z,27.90
2018-07-09T09:24:55.131Z,27.60
2018-07-09T09:27:24.806Z,26.20
2018-07-09T09:29:54.525Z,26.30
2018-07-09T09:32:23.730Z,27.40
2018-07-09T09:34:53.262Z,27.40
2018-07-09T09:37:25.859Z,28.80
2018-07-09T09:39:54.363Z,27.90
2018-07-09T09:42:22.393Z,28.40
2018-07-09T09:44:50.502Z,28.10
2018-07-09T09:47:18.521Z,27.30
2018-07-09T09:49:46.587Z,27.10
2018-07-09T09:52:15.037Z,27.40
2018-07-09T09:54:43.366Z,25.90
2018-07-09T09:57:11.797Z,24.70
2018-07-09T09:59:39.762Z,24.60
2018-07-09T10:02:08.344Z,24.30
2018-07-09T10:04:36.556Z,24.30
2018-07-09T10:07:05.229Z,23.90
2018-07-09T10:09:34.203Z,23.50
2018-07-09T10:12:02.355Z,23.00
2018-07-09T10:14:30.712Z,23.20
2018-07-09T10:16:59.010Z,23.30
2018-07-09T10:19:27.014Z,23.40
2018-07-09T10:21:55.216Z,23.30
2018-07-09T10:24:23.622Z,23.70
2018-07-09T10:26:51.702Z,23.80
2018-07-09T10:29:21.142Z,23.90
2018-07-09T10:31:50.104Z,24.00
2018-07-09T10:34:19.182Z,23.80
2018-07-09T10:36:48.514Z,23.90
2018-07-09T10:39:17.629Z,23.70
2018-07-09T10:41:46.804Z,23.40
2018-07-09T10:44:14.857Z,23.40
2018-07-09T10:46:42.933Z,23.50
2018-07-09T10:49:11.935Z,23.60
2018-07-09T10:51:40.202Z,23.70
2018-07-09T10:54:08.900Z,23.80
2018-07-09T10:56:36.897Z,23.80
2018-07-09T10:59:06.349Z,23.50
2018-07-09T11:01:35.423Z,23.50
2018-07-09T11:04:04.560Z,24.00
2018-07-09T11:06:32.670Z,23.70
2018-07-09T11:09:01.121Z,23.50
2018-07-09T11:11:30.801Z,23.50
2018-07-09T11:13:59.003Z,23.70
2018-07-09T11:16:27.154Z,23.80
2018-07-09T11:18:55.220Z,23.80
2018-07-09T11:21:24.310Z,24.00
2018-07-09T11:23:52.666Z,24.00
2018-07-09T11:26:20.833Z,23.90
2018-07-09T11:28:49.520Z,23.90
2018-07-09T11:31:18.264Z,23.80
2018-07-09T11:33:46.841Z,23.90
2018-07-09T11:36:16.098Z,23.90
2018-07-09T11:38:44.250Z,24.00
2018-07-09T11:41:14.650Z,24.00
2018-07-09T11:43:42.910Z,23.80
2018-07-09T11:46:13.766Z,23.90
2018-07-09T11:48:42.687Z,24.10
2018-07-09T11:51:11.085Z,24.10
2018-07-09T11:53:39.184Z,24.30
2018-07-09T11:56:08.334Z,24.20
2018-07-09T11:58:37.276Z,24.40
2018-07-09T12:01:05.652Z,24.40
2018-07-09T12:03:35.285Z,24.20
2018-07-09T12:06:03.369Z,24.10
2018-07-09T12:08:31.717Z,24.30
2018-07-09T12:11:00.778Z,24.40
2018-07-09T12:13:28.964Z,24.50
2018-07-09T12:15:58.221Z,24.60
2018-07-09T12:18:26.250Z,24.50
2018-07-09T12:20:54.747Z,24.90
2018-07-09T12:23:22.843Z,24.60
2018-07-09T12:25:51.071Z,24.60
2018-07-09T12:28:22.620Z,24.60
2018-07-09T12:30:51.334Z,24.70
2018-07-09T12:33:22.990Z,25.10
2018-07-09T12:35:51.602Z,24.90
2018-07-09T12:38:20.885Z,24.60
2018-07-09T12:40:49.025Z,24.70
2018-07-09T12:43:19.657Z,24.50
2018-07-09T12:45:54.446Z,24.70
2018-07-09T12:48:23.637Z,24.90
2018-07-09T12:50:55.721Z,24.90
2018-07-09T12:53:28.485Z,25.00
2018-07-09T12:55:58.561Z,25.20
2018-07-09T12:58:36.787Z,25.30
2018-07-09T13:01:06.636Z,24.70
2018-07-09T13:03:39.069Z,24.60
2018-07-09T13:06:12.711Z,25.10
2018-07-09T13:08:42.770Z,25.40
2018-07-09T13:11:11.089Z,25.60
2018-07-09T13:13:39.662Z,25.30
2018-07-09T13:16:09.008Z,25.40
2018-07-09T13:18:37.330Z,25.20
2018-07-09T13:21:05.439Z,25.30
2018-07-09T13:23:35.192Z,25.30
2018-07-09T13:26:04.957Z,25.50
2018-07-09T13:28:34.378Z,25.30
2018-07-09T13:31:02.783Z,25.50
2018-07-09T13:33:31.022Z,25.40
2018-07-09T13:35:59.625Z,25.80
2018-07-09T13:38:31.630Z,25.90
2018-07-09T13:41:05.587Z,26.00
2018-07-09T13:46:11.406Z,25.90
2018-07-09T13:48:40.479Z,25.50
2018-07-09T13:51:09.863Z,25.70
2018-07-09T13:53:39.303Z,26.00
2018-07-09T13:56:11.275Z,25.70
2018-07-09T13:58:43.494Z,26.30
2018-07-09T14:01:13.831Z,26.10
2018-07-09T14:03:43.905Z,26.00
2018-07-09T14:06:12.797Z,26.10
2018-07-09T14:08:42.149Z,25.90
2018-07-09T14:11:10.244Z,25.20
2018-07-09T14:13:38.473Z,25.00
2018-07-09T14:16:06.668Z,25.00
2018-07-09T14:18:35.279Z,25.20
2018-07-09T14:21:04.682Z,25.30
2018-07-09T14:23:33.086Z,25.20
2018-07-09T14:26:03.241Z,25.40
2018-07-09T14:28:31.809Z,25.30
2018-07-09T14:31:00.987Z,25.20
2018-07-09T14:33:29.447Z,25.10
2018-07-09T14:35:59.108Z,25.00
2018-07-09T14:38:28.832Z,24.70
2018-07-09T14:40:58.134Z,24.80
2018-07-09T14:43:27.352Z,24.70
2018-07-09T14:45:56.264Z,24.80
2018-07-09T14:48:24.649Z,24.80
2018-07-09T14:50:52.998Z,24.80
2018-07-09T14:53:21.401Z,25.00
2018-07-09T14:55:49.616Z,25.10
2018-07-09T14:58:18.025Z,25.30
2018-07-09T15:00:46.349Z,25.20
2018-07-09T15:03:16.085Z,25.40
2018-07-09T15:05:46.284Z,25.50
2018-07-09T15:08:14.585Z,25.00
2018-07-09T15:10:42.549Z,25.10
2018-07-09T15:13:11.706Z,25.20
2018-07-09T15:15:40.310Z,25.30
2018-07-09T15:18:08.278Z,25.50
2018-07-09T15:20:36.461Z,25.30
2018-07-09T15:23:04.871Z,25.10
2018-07-09T15:25:32.906Z,25.00
2018-07-09T15:28:01.893Z,24.70
2018-07-09T15:30:29.978Z,24.70
2018-07-09T15:32:59.629Z,24.50
2018-07-09T15:35:29.870Z,24.40
2018-07-09T15:37:59.016Z,24.50
2018-07-09T15:40:27.529Z,24.70
2018-07-09T15:42:55.553Z,24.80
2018-07-09T15:45:27.277Z,25.10
2018-07-09T15:47:55.701Z,25.30
2018-07-09T15:50:29.033Z,25.00
2018-07-09T15:52:57.282Z,24.90
2018-07-09T15:55:26.468Z,24.90
2018-07-09T15:57:54.518Z,24.10
2018-07-09T16:00:23.818Z,24.00
2018-07-09T16:02:52.087Z,23.70
2018-07-09T16:05:21.371Z,23.70
2018-07-09T16:07:50.685Z,23.70
2018-07-09T16:10:21.466Z,23.60
2018-07-09T16:12:51.843Z,23.30
2018-07-09T16:15:21.345Z,23.40
2018-07-09T16:17:49.477Z,23.40
2018-07-09T16:20:19.827Z,23.50
2018-07-09T16:22:48.497Z,23.50
2018-07-09T16:25:16.828Z,23.70
2018-07-09T16:27:45.559Z,23.50
2018-07-09T16:30:15.246Z,23.30
2018-07-09T16:32:47.065Z,23.40
2018-07-09T16:35:16.484Z,23.60
2018-07-09T16:37:44.878Z,23.60
2018-07-09T16:40:14.140Z,23.60
2018-07-09T16:42:42.380Z,23.50
2018-07-09T16:45:11.098Z,23.20
2018-07-09T16:47:39.837Z,23.20
2018-07-09T16:50:08.487Z,23.10
2018-07-09T16:52:38.440Z,23.00
2018-07-09T16:55:07.753Z,23.10
2018-07-09T16:57:37.786Z,23.20
2018-07-09T17:00:06.627Z,23.00
2018-07-09T17:02:35.002Z,23.10
2018-07-09T17:05:05.497Z,23.10
2018-07-09T17:07:34.703Z,23.00
2018-07-09T17:10:04.561Z,23.00
2018-07-09T17:12:33.241Z,23.00
2018-07-09T17:15:02.760Z,22.80
2018-07-09T17:17:32.073Z,22.90
2018-07-09T17:20:02.217Z,22.90
2018-07-09T17:22:30.717Z,22.90
2018-07-09T17:25:04.411Z,22.90
2018-07-09T17:27:38.477Z,22.90
2018-07-09T17:30:06.898Z,22.90
2018-07-09T17:32:37.741Z,22.70
2018-07-09T17:35:06.019Z,22.70
2018-07-09T17:40:09.602Z,22.80
2018-07-09T17:42:38.680Z,22.80
2018-07-09T17:45:07.008Z,22.50
2018-07-09T17:47:40.936Z,22.60
2018-07-09T17:50:09.358Z,22.60
2018-07-09T17:52:39.781Z,22.70
2018-07-09T17:55:09.851Z,22.60
2018-07-09T17:57:38.014Z,22.40
2018-07-09T18:00:06.281Z,22.40
2018-07-09T18:02:34.667Z,22.30
2018-07-09T18:05:04.314Z,22.40
2018-07-09T18:07:32.700Z,22.40
2018-07-09T18:10:06.544Z,22.40
2018-07-09T18:12:34.945Z,22.30
2018-07-09T18:15:05.242Z,22.10
2018-07-09T18:17:41.092Z,22.10
2018-07-09T18:20:10.110Z,22.10
2018-07-09T18:22:41.173Z,22.00
2018-07-09T18:25:13.341Z,22.00
2018-07-09T18:27:42.115Z,22.00
2018-07-09T18:30:26.203Z,22.00
2018-07-09T18:32:55.367Z,21.90
2018-07-09T18:35:26.166Z,21.90
2018-07-09T18:37:55.585Z,21.80
2018-07-09T18:40:25.369Z,21.80
2018-07-09T18:42:54.623Z,21.70
2018-07-09T18:45:23.557Z,21.70
2018-07-09T18:47:54.754Z,21.70
2018-07-09T18:50:25.977Z,21.60
2018-07-09T18:52:55.898Z,21.60
2018-07-09T18:55:25.249Z,21.60
2018-07-09T18:57:54.623Z,21.50
2018-07-09T19:00:23.174Z,21.50
2018-07-09T19:02:51.488Z,21.50
2018-07-09T19:08:11.617Z,21.40
2018-07-09T19:10:41.235Z,21.40
2018-07-09T19:13:10.431Z,21.30
2018-07-09T19:15:38.841Z,21.30
2018-07-09T19:18:19.613Z,21.30
2018-07-09T19:21:26.142Z,21.30
2018-07-09T19:23:53.970Z,21.30
2018-07-09T19:26:23.744Z,21.30
2018-07-09T19:28:50.999Z,21.20
2018-07-09T19:31:18.060Z,21.10
2018-07-09T19:33:45.294Z,21.20
2018-07-09T19:36:16.271Z,21.10
2018-07-09T19:38:48.532Z,21.00
2018-07-09T19:41:15.537Z,21.10
2018-07-09T19:43:44.231Z,21.00
2018-07-09T19:46:12.652Z,21.00
2018-07-09T19:48:39.663Z,21.00
2018-07-09T19:51:08.257Z,21.00
2018-07-09T19:53:36.614Z,20.90
2018-07-09T19:56:06.024Z,20.90
2018-07-09T19:58:33.894Z,20.90
2018-07-09T20:01:01.978Z,20.90
2018-07-09T20:03:30.216Z,20.90
2018-07-09T20:05:57.726Z,20.90
2018-07-09T20:08:30.229Z,20.80
2018-07-09T20:11:02.641Z,20.80
2018-07-09T20:14:01.096Z,20.80
2018-07-09T20:16:33.396Z,20.80
2018-07-09T20:19:01.992Z,20.70
2018-07-09T20:21:29.520Z,20.70
2018-07-09T20:23:56.978Z,20.70
2018-07-09T20:26:26.390Z,20.60
2018-07-09T20:28:53.846Z,20.60
2018-07-09T20:31:21.001Z,20.60
2018-07-09T20:33:48.985Z,20.60
2018-07-09T20:36:16.926Z,20.50
2018-07-09T20:38:44.608Z,20.10
2018-07-09T20:41:12.277Z,19.90
2018-07-09T20:43:39.090Z,20.00
2018-07-09T20:46:12.795Z,19.90
2018-07-09T20:48:39.838Z,20.00
2018-07-09T20:51:06.637Z,20.10
2018-07-09T20:53:33.461Z,20.10
2018-07-09T20:56:01.317Z,20.10
2018-07-09T20:58:28.702Z,20.20
2018-07-09T21:00:55.505Z,20.20
2018-07-09T21:03:27.590Z,20.20
2018-07-09T21:05:58.283Z,20.20
2018-07-09T21:08:25.408Z,20.20
2018-07-09T21:10:53.640Z,20.20
2018-07-09T21:15:55.835Z,20.10
2018-07-09T21:18:22.675Z,20.10
2018-07-09T21:20:52.498Z,20.20
2018-07-09T21:23:20.416Z,20.10
2018-07-09T21:25:47.362Z,20.10
2018-07-09T21:28:14.596Z,20.20
2018-07-09T21:30:42.663Z,20.20
2018-07-09T21:33:09.501Z,20.20
2018-07-09T21:35:36.881Z,20.20
2018-07-09T21:38:03.733Z,20.10
2018-07-09T21:40:30.565Z,20.00
2018-07-09T21:42:57.639Z,19.90
2018-07-09T21:45:24.650Z,19.90
2018-07-09T21:47:59.217Z,19.90
2018-07-09T21:50:18.877Z,19.90
2018-07-09T21:52:45.700Z,19.90
2018-07-09T21:55:14.534Z,19.90
2018-07-09T21:57:42.641Z,19.80
2018-07-09T22:00:09.642Z,19.80
2018-07-09T22:02:38.092Z,19.80
2018-07-09T22:05:05.264Z,19.80
2018-07-09T22:07:32.813Z,19.70
2018-07-09T22:09:59.593Z,19.70
2018-07-09T22:12:26.603Z,19.70
2018-07-09T22:14:54.365Z,19.70
2018-07-09T22:17:21.228Z,19.70
2018-07-09T22:19:48.078Z,19.50
2018-07-09T22:22:15.377Z,19.50
2018-07-09T22:24:42.365Z,19.50
2018-07-09T22:27:09.380Z,19.50
2018-07-09T22:29:36.134Z,19.50
2018-07-09T22:32:04.759Z,19.40
2018-07-09T22:34:33.334Z,19.40
2018-07-09T22:37:02.850Z,19.40
2018-07-09T22:39:31.415Z,19.30
2018-07-09T22:42:00.094Z,19.30
2018-07-09T22:44:28.467Z,19.30
2018-07-09T22:46:57.549Z,19.20
2018-07-09T22:49:28.054Z,19.20
2018-07-09T22:51:56.459Z,19.20
2018-07-09T22:54:25.199Z,19.20
2018-07-09T22:56:53.642Z,19.30
2018-07-09T22:59:21.675Z,19.20
2018-07-09T23:01:51.185Z,19.20
2018-07-09T23:04:19.186Z,19.20
2018-07-09T23:06:47.192Z,19.20
2018-07-09T23:12:34.415Z,19.10
2018-07-09T23:17:14.609Z,19.20
2018-07-09T23:22:26.071Z,19.10
2018-07-09T23:24:52.821Z,18.90
2018-07-09T23:27:20.090Z,19.00
2018-07-09T23:29:46.857Z,19.00
2018-07-09T23:32:14.364Z,18.90
2018-07-09T23:34:41.314Z,19.00
2018-07-09T23:37:08.520Z,18.90
2018-07-09T23:39:36.673Z,18.90
2018-07-09T23:42:04.139Z,18.90
2018-07-09T23:44:30.934Z,18.90
2018-07-09T23:46:58.110Z,18.80
2018-07-09T23:49:24.962Z,18.70
2018-07-09T23:51:52.352Z,18.70
2018-07-09T23:54:19.365Z,18.70
2018-07-09T23:57:54.285Z,18.80
